Time;durP1;ratioP1;P1;durP2;ratioP2;P2;SDS_P1;SDS_P2;PMS_P1;PMS_P2;Temp;Humidity;BMP_temperature;BMP_pressure;BME280_temperature;BME280_humidity;BME280_pressure;Samples;Min_cycle;Max_cycle;Signal;HPM_P1;HPM_P2
2021/01/16 00:00:27;;;;;;;12.60;8.85;;;;;;;;;;5049847;28;20198;-64
2021/01/16 00:02:53;;;;;;;13.48;8.63;;;;;;;;;;5050137;28;20317;-64
2021/01/16 00:05:21;;;;;;;12.30;7.70;;;;;;;;;;5049566;28;20200;-67
2021/01/16 00:07:57;;;;;;;11.38;7.45;;;;;;;;;;5049522;28;20640;-66
2021/01/16 00:10:24;;;;;;;10.13;7.07;;;;;;;;;;5049527;28;20192;-64
2021/01/16 00:12:50;;;;;;;13.65;7.70;;;;;;;;;;5049734;28;20235;-64
2021/01/16 00:15:16;;;;;;;14.68;8.20;;;;;;;;;;5050103;28;20208;-64
2021/01/16 00:17:43;;;;;;;12.00;7.88;;;;;;;;;;5049780;28;20280;-63
2021/01/16 00:20:10;;;;;;;14.50;8.27;;;;;;;;;;5049539;28;20198;-63
2021/01/16 00:22:56;;;;;;;14.27;8.23;;;;;;;;;;5049380;28;20236;-66
2021/01/16 00:25:23;;;;;;;13.90;8.52;;;;;;;;;;5049411;28;20189;-64
2021/01/16 00:27:49;;;;;;;14.27;8.25;;;;;;;;;;5048501;28;20650;-65
2021/01/16 00:30:17;;;;;;;13.70;8.23;;;;;;;;;;5048902;28;20200;-67
2021/01/16 00:32:43;;;;;;;15.70;8.38;;;;;;;;;;5049832;28;20208;-64
2021/01/16 00:35:14;;;;;;;16.02;8.00;;;;;;;;;;5048887;28;20251;-63
2021/01/16 00:37:42;;;;;;;14.95;7.95;;;;;;;;;;5049712;28;20587;-67
2021/01/16 00:40:09;;;;;;;13.70;8.30;;;;;;;;;;5048649;28;20196;-64
2021/01/16 00:42:40;;;;;;;16.85;9.50;;;;;;;;;;5049574;28;20284;-64
2021/01/16 00:45:07;;;;;;;14.85;9.48;;;;;;;;;;5049124;28;20728;-65
2021/01/16 00:47:37;;;;;;;15.32;9.15;;;;;;;;;;5049870;28;20284;-65
2021/01/16 00:50:08;;;;;;;16.02;8.40;;;;;;;;;;5049026;28;20198;-65
2021/01/16 00:52:35;;;;;;;14.93;9.27;;;;;;;;;;5047994;28;20196;-65
2021/01/16 00:55:03;;;;;;;14.55;8.93;;;;;;;;;;5047804;28;20196;-62
2021/01/16 00:57:30;;;;;;;16.00;8.90;;;;;;;;;;5051265;28;20566;-65
2021/01/16 00:59:59;;;;;;;13.80;8.70;;;;;;;;;;5048875;28;20262;-67
2021/01/16 01:02:34;;;;;;;14.52;9.00;;;;;;;;;;5047543;28;20566;-63
2021/01/16 01:05:00;;;;;;;13.50;8.85;;;;;;;;;;5049015;28;20216;-63
2021/01/16 01:07:26;;;;;;;14.77;9.70;;;;;;;;;;5049268;28;20204;-64
2021/01/16 01:09:53;;;;;;;15.23;9.35;;;;;;;;;;5048920;28;20232;-65
2021/01/16 01:12:19;;;;;;;14.70;9.55;;;;;;;;;;5049214;28;20228;-62
2021/01/16 01:14:45;;;;;;;14.45;9.20;;;;;;;;;;5048716;28;20274;-66
2021/01/16 01:17:15;;;;;;;15.68;9.02;;;;;;;;;;5049371;28;20691;-66
2021/01/16 01:19:41;;;;;;;14.57;9.20;;;;;;;;;;5048724;28;20932;-68
2021/01/16 01:22:08;;;;;;;13.93;9.20;;;;;;;;;;5049692;28;20211;-63
2021/01/16 01:24:35;;;;;;;14.10;8.75;;;;;;;;;;5049245;28;20204;-66
2021/01/16 01:27:02;;;;;;;13.32;8.15;;;;;;;;;;5049497;28;20193;-66
2021/01/16 01:29:28;;;;;;;14.60;8.23;;;;;;;;;;5050592;28;20971;-67
2021/01/16 01:31:54;;;;;;;15.20;9.48;;;;;;;;;;5052998;28;20562;-63
2021/01/16 01:34:21;;;;;;;15.90;9.30;;;;;;;;;;5051872;28;20314;-68
2021/01/16 01:36:47;;;;;;;14.30;9.00;;;;;;;;;;5052437;28;20248;-67
2021/01/16 01:39:13;;;;;;;14.13;8.65;;;;;;;;;;5052198;28;20236;-65
2021/01/16 01:41:40;;;;;;;14.50;8.75;;;;;;;;;;5054753;28;20288;-64
2021/01/16 01:44:08;;;;;;;15.68;9.35;;;;;;;;;;5054488;28;20732;-63
2021/01/16 01:46:36;;;;;;;13.00;8.07;;;;;;;;;;5055474;28;20261;-66
2021/01/16 01:49:04;;;;;;;12.70;8.25;;;;;;;;;;5054272;28;20706;-66
2021/01/16 01:51:33;;;;;;;11.85;7.88;;;;;;;;;;5052757;28;20272;-65
2021/01/16 01:54:00;;;;;;;11.93;8.15;;;;;;;;;;5052826;28;20196;-65
2021/01/16 01:56:27;;;;;;;11.40;7.90;;;;;;;;;;5052484;28;20267;-65
2021/01/16 01:58:54;;;;;;;9.85;7.28;;;;;;;;;;5051371;28;20562;-63
2021/01/16 02:01:20;;;;;;;13.15;7.82;;;;;;;;;;5052050;28;20203;-63
2021/01/16 02:03:50;;;;;;;12.32;7.25;;;;;;;;;;5051682;28;20221;-65
2021/01/16 02:06:16;;;;;;;10.30;7.25;;;;;;;;;;5051745;28;20304;-65
2021/01/16 02:08:43;;;;;;;10.82;6.50;;;;;;;;;;5052105;28;20291;-64
2021/01/16 02:11:10;;;;;;;11.07;6.80;;;;;;;;;;5051682;28;20181;-65
2021/01/16 02:13:36;;;;;;;10.65;6.20;;;;;;;;;;5051848;28;20205;-66
2021/01/16 02:16:13;;;;;;;10.27;6.20;;;;;;;;;;5050974;28;20258;-66
2021/01/16 02:18:45;;;;;;;9.45;6.07;;;;;;;;;;5051884;28;20207;-64
2021/01/16 02:21:12;;;;;;;8.80;5.82;;;;;;;;;;5051513;28;20201;-62
2021/01/16 02:23:48;;;;;;;9.57;6.40;;;;;;;;;;5052055;28;20753;-61
2021/01/16 02:26:15;;;;;;;12.07;5.90;;;;;;;;;;5051096;28;20639;-65
2021/01/16 02:28:49;;;;;;;10.07;6.40;;;;;;;;;;5055286;28;20257;-67
2021/01/16 02:31:16;;;;;;;11.27;6.53;;;;;;;;;;5051960;28;20718;-66
2021/01/16 02:33:43;;;;;;;9.98;6.32;;;;;;;;;;5051090;28;20353;-66
2021/01/16 02:36:17;;;;;;;9.88;6.65;;;;;;;;;;5050926;28;20315;-64
2021/01/16 02:38:56;;;;;;;10.65;6.32;;;;;;;;;;5051821;28;20653;-66
2021/01/16 02:41:34;;;;;;;11.60;6.97;;;;;;;;;;5050351;28;20228;-66
2021/01/16 02:44:27;;;;;;;10.93;6.65;;;;;;;;;;5052011;28;20214;-64
2021/01/16 02:46:57;;;;;;;10.27;6.50;;;;;;;;;;5035398;28;20270;-66
2021/01/16 02:49:37;;;;;;;10.63;7.07;;;;;;;;;;5050819;28;20196;-63
2021/01/16 02:52:05;;;;;;;12.75;8.10;;;;;;;;;;5051452;28;20196;-65
2021/01/16 02:54:34;;;;;;;12.40;7.72;;;;;;;;;;5050752;28;20643;-64
2021/01/16 02:57:01;;;;;;;11.05;7.50;;;;;;;;;;5050905;28;20572;-65
2021/01/16 02:59:27;;;;;;;11.07;7.15;;;;;;;;;;5050859;28;20192;-64
2021/01/16 03:01:54;;;;;;;9.90;7.15;;;;;;;;;;5050858;28;20643;-63
2021/01/16 03:04:21;;;;;;;9.77;6.93;;;;;;;;;;5050600;28;20193;-64
2021/01/16 03:06:49;;;;;;;12.65;7.82;;;;;;;;;;5050993;28;20188;-67
2021/01/16 03:09:17;;;;;;;13.65;8.43;;;;;;;;;;5050401;28;20204;-64
2021/01/16 03:11:44;;;;;;;12.23;7.72;;;;;;;;;;5051135;28;20196;-62
2021/01/16 03:14:11;;;;;;;12.23;8.18;;;;;;;;;;5050576;28;20200;-63
2021/01/16 03:16:47;;;;;;;18.15;8.13;;;;;;;;;;5051438;28;20295;-65
2021/01/16 03:19:18;;;;;;;14.30;8.70;;;;;;;;;;5050637;28;20207;-66
2021/01/16 03:21:44;;;;;;;13.30;8.07;;;;;;;;;;5050703;28;20236;-63
2021/01/16 03:24:11;;;;;;;12.45;7.95;;;;;;;;;;5050560;28;20188;-62
2021/01/16 03:26:39;;;;;;;16.23;9.70;;;;;;;;;;5050809;28;20773;-66
2021/01/16 03:29:05;;;;;;;13.98;9.00;;;;;;;;;;5050288;28;20755;-63
2021/01/16 03:31:31;;;;;;;14.57;8.90;;;;;;;;;;5050107;28;20219;-63
2021/01/16 03:33:57;;;;;;;13.55;8.73;;;;;;;;;;5050581;28;20267;-65
2021/01/16 03:36:24;;;;;;;14.20;8.70;;;;;;;;;;5049428;28;20718;-63
2021/01/16 03:38:50;;;;;;;13.15;8.82;;;;;;;;;;5050528;28;20199;-65
2021/01/16 03:41:16;;;;;;;14.98;9.40;;;;;;;;;;5049722;28;20201;-66
2021/01/16 03:43:42;;;;;;;14.82;9.57;;;;;;;;;;5050411;28;20251;-65
2021/01/16 03:46:09;;;;;;;14.52;9.10;;;;;;;;;;5049638;28;20675;-66
2021/01/16 03:48:35;;;;;;;13.90;9.18;;;;;;;;;;5050961;28;20200;-64
2021/01/16 03:51:02;;;;;;;13.13;9.27;;;;;;;;;;5049427;28;20204;-64
2021/01/16 03:53:28;;;;;;;14.32;10.02;;;;;;;;;;5050056;28;20280;-64
2021/01/16 03:55:56;;;;;;;14.43;9.32;;;;;;;;;;5050072;28;20702;-65
2021/01/16 03:58:22;;;;;;;13.75;9.30;;;;;;;;;;5050811;28;20200;-66
2021/01/16 04:00:49;;;;;;;15.55;8.80;;;;;;;;;;5058891;28;20189;-66
2021/01/16 04:03:15;;;;;;;14.63;9.40;;;;;;;;;;5049857;28;20243;-66
2021/01/16 04:05:42;;;;;;;13.80;9.35;;;;;;;;;;5049391;28;20197;-64
2021/01/16 04:08:08;;;;;;;15.40;9.93;;;;;;;;;;5049896;28;20228;-65
2021/01/16 04:10:34;;;;;;;14.25;10.30;;;;;;;;;;5049430;28;20589;-65
2021/01/16 04:13:01;;;;;;;14.95;9.43;;;;;;;;;;5050170;28;20606;-65
2021/01/16 04:15:27;;;;;;;16.45;9.98;;;;;;;;;;5049552;28;20230;-66
2021/01/16 04:17:54;;;;;;;13.85;9.18;;;;;;;;;;5049726;28;20196;-65
2021/01/16 04:20:21;;;;;;;15.38;9.15;;;;;;;;;;5049520;28;20192;-65
2021/01/16 04:22:49;;;;;;;14.02;9.65;;;;;;;;;;5049484;28;20216;-65
2021/01/16 04:25:15;;;;;;;15.30;9.35;;;;;;;;;;5049384;28;20204;-64
2021/01/16 04:27:42;;;;;;;15.30;9.50;;;;;;;;;;5049738;28;20227;-64
2021/01/16 04:30:08;;;;;;;13.73;9.20;;;;;;;;;;5049458;28;20207;-64
2021/01/16 04:32:34;;;;;;;14.10;9.43;;;;;;;;;;5049912;28;20200;-64
2021/01/16 04:35:02;;;;;;;17.00;9.55;;;;;;;;;;5048909;28;20224;-62
2021/01/16 04:37:28;;;;;;;15.70;9.55;;;;;;;;;;5049897;28;20650;-64
2021/01/16 04:39:54;;;;;;;15.32;9.85;;;;;;;;;;5049316;28;20299;-64
2021/01/16 04:42:20;;;;;;;15.90;9.23;;;;;;;;;;5049596;28;20227;-64
2021/01/16 04:44:48;;;;;;;17.02;9.32;;;;;;;;;;5049034;28;20192;-66
2021/01/16 04:47:25;;;;;;;17.52;10.20;;;;;;;;;;5049552;28;20311;-68
2021/01/16 04:49:51;;;;;;;16.48;10.00;;;;;;;;;;5049390;28;20200;-65
2021/01/16 04:52:20;;;;;;;17.33;9.90;;;;;;;;;;5049431;28;20224;-65
2021/01/16 04:54:46;;;;;;;15.43;9.20;;;;;;;;;;5049372;28;20588;-64
2021/01/16 04:57:12;;;;;;;16.35;9.98;;;;;;;;;;5049288;28;20184;-66
2021/01/16 04:59:39;;;;;;;16.58;9.48;;;;;;;;;;5048860;28;20222;-62
2021/01/16 05:02:09;;;;;;;22.45;10.75;;;;;;;;;;5049376;28;20203;-66
2021/01/16 05:04:37;;;;;;;15.35;8.55;;;;;;;;;;5051462;28;20204;-63
2021/01/16 05:07:05;;;;;;;19.50;10.73;;;;;;;;;;5053597;28;20203;-66
2021/01/16 05:09:33;;;;;;;17.38;10.27;;;;;;;;;;5052939;28;20675;-65
2021/01/16 05:12:05;;;;;;;17.65;10.10;;;;;;;;;;5053196;28;20196;-63
2021/01/16 05:14:55;;;;;;;17.35;9.73;;;;;;;;;;5052894;28;20205;-64
2021/01/16 05:17:24;;;;;;;17.42;8.52;;;;;;;;;;5053207;28;20219;-64
2021/01/16 05:19:51;;;;;;;22.35;11.90;;;;;;;;;;5052497;28;20215;-67
2021/01/16 05:22:18;;;;;;;18.58;9.50;;;;;;;;;;5052936;28;20274;-65
2021/01/16 05:24:44;;;;;;;21.73;10.88;;;;;;;;;;5052778;28;20243;-64
2021/01/16 05:27:13;;;;;;;17.17;10.65;;;;;;;;;;5052751;28;20196;-62
2021/01/16 05:29:40;;;;;;;15.90;9.77;;;;;;;;;;5052184;28;20197;-64
2021/01/16 05:32:06;;;;;;;17.95;10.30;;;;;;;;;;5057481;28;20306;-65
2021/01/16 05:34:34;;;;;;;15.77;9.57;;;;;;;;;;5052445;28;20196;-63
2021/01/16 05:37:01;;;;;;;16.83;9.82;;;;;;;;;;5033235;28;20275;-65
2021/01/16 05:39:28;;;;;;;17.20;10.00;;;;;;;;;;5032457;28;20194;-65
2021/01/16 05:42:05;;;;;;;17.65;9.90;;;;;;;;;;5033197;28;20209;-64
2021/01/16 05:44:32;;;;;;;16.23;8.10;;;;;;;;;;5032228;28;20271;-63
2021/01/16 05:46:59;;;;;;;18.08;9.60;;;;;;;;;;5032624;28;20647;-62
2021/01/16 05:49:26;;;;;;;19.13;11.02;;;;;;;;;;5032059;28;20924;-65
2021/01/16 05:51:53;;;;;;;18.95;11.48;;;;;;;;;;5032546;28;20189;-63
2021/01/16 05:54:25;;;;;;;17.83;10.38;;;;;;;;;;5031995;28;20205;-64
2021/01/16 05:56:52;;;;;;;20.08;10.95;;;;;;;;;;5033038;28;20675;-67
2021/01/16 05:59:19;;;;;;;19.00;10.50;;;;;;;;;;5031730;28;20586;-64
2021/01/16 06:01:46;;;;;;;38.65;19.50;;;;;;;;;;5032293;28;20781;-66
2021/01/16 06:04:16;;;;;;;21.17;11.52;;;;;;;;;;5031666;28;20228;-68
2021/01/16 06:06:43;;;;;;;19.85;11.20;;;;;;;;;;5032784;28;20291;-65
2021/01/16 06:09:14;;;;;;;15.70;8.77;;;;;;;;;;5031800;28;20272;-64
2021/01/16 06:11:44;;;;;;;18.90;10.73;;;;;;;;;;5032620;28;20197;-66
2021/01/16 06:14:12;;;;;;;18.55;10.15;;;;;;;;;;5031864;28;20205;-67
2021/01/16 06:16:46;;;;;;;20.33;11.23;;;;;;;;;;5035615;28;20284;-66
2021/01/16 06:19:16;;;;;;;18.13;9.55;;;;;;;;;;5035406;28;20271;-65
2021/01/16 06:21:44;;;;;;;20.65;9.77;;;;;;;;;;5035357;28;20593;-64
2021/01/16 06:24:17;;;;;;;16.55;9.20;;;;;;;;;;5032526;28;20715;-65
2021/01/16 06:26:46;;;;;;;18.55;10.23;;;;;;;;;;5032780;28;20201;-64
2021/01/16 06:29:26;;;;;;;15.50;6.93;;;;;;;;;;5032070;28;20189;-64
2021/01/16 06:32:01;;;;;;;15.85;8.75;;;;;;;;;;5032107;28;20279;-63
2021/01/16 06:34:28;;;;;;;17.33;8.43;;;;;;;;;;5031464;28;20527;-64
2021/01/16 06:37:02;;;;;;;15.10;8.77;;;;;;;;;;5050926;28;20228;-63
2021/01/16 06:39:32;;;;;;;15.77;8.50;;;;;;;;;;5050707;28;20200;-65
2021/01/16 06:42:04;;;;;;;16.20;9.35;;;;;;;;;;5051936;28;20204;-67
2021/01/16 06:44:30;;;;;;;15.23;7.38;;;;;;;;;;5050927;28;20196;-64
2021/01/16 06:46:58;;;;;;;16.13;8.07;;;;;;;;;;5051511;28;20203;-65
2021/01/16 06:49:25;;;;;;;15.43;8.27;;;;;;;;;;5051172;28;20204;-64
2021/01/16 06:51:53;;;;;;;17.10;9.23;;;;;;;;;;5051513;28;20571;-63
2021/01/16 06:54:22;;;;;;;17.52;9.57;;;;;;;;;;5050667;28;20215;-63
2021/01/16 06:56:59;;;;;;;17.35;9.52;;;;;;;;;;5051460;28;20206;-66
2021/01/16 06:59:26;;;;;;;18.02;9.43;;;;;;;;;;5050698;28;20529;-67
2021/01/16 07:01:52;;;;;;;17.60;9.02;;;;;;;;;;5055041;28;20189;-63
2021/01/16 07:04:25;;;;;;;15.48;8.90;;;;;;;;;;5053907;28;20209;-62
2021/01/16 07:06:51;;;;;;;15.95;8.82;;;;;;;;;;5051206;28;20193;-68
2021/01/16 07:09:19;;;;;;;16.98;8.60;;;;;;;;;;5050693;28;20219;-63
2021/01/16 07:11:54;;;;;;;17.55;9.18;;;;;;;;;;5051324;28;20287;-65
2021/01/16 07:14:22;;;;;;;16.05;8.70;;;;;;;;;;5050482;28;20212;-64
2021/01/16 07:16:49;;;;;;;13.18;6.68;;;;;;;;;;5051094;28;20203;-65
2021/01/16 07:19:23;;;;;;;17.98;8.85;;;;;;;;;;5050317;28;20215;-63
2021/01/16 07:21:50;;;;;;;15.88;8.60;;;;;;;;;;5050499;28;20196;-62
2021/01/16 07:24:17;;;;;;;18.02;9.00;;;;;;;;;;5050018;28;20744;-65
2021/01/16 07:26:50;;;;;;;14.95;8.73;;;;;;;;;;5050557;28;20262;-67
2021/01/16 07:29:17;;;;;;;17.67;8.95;;;;;;;;;;5049811;28;20188;-66
2021/01/16 07:31:44;;;;;;;16.17;8.88;;;;;;;;;;5050321;28;20200;-64
2021/01/16 07:34:11;;;;;;;16.67;9.60;;;;;;;;;;5050262;28;20300;-66
2021/01/16 07:36:38;;;;;;;16.13;8.50;;;;;;;;;;5050148;28;20611;-66
2021/01/16 07:39:05;;;;;;;18.98;8.80;;;;;;;;;;5050087;28;20246;-65
2021/01/16 07:41:32;;;;;;;16.85;8.82;;;;;;;;;;5049820;28;20699;-63
2021/01/16 07:44:02;;;;;;;18.52;9.60;;;;;;;;;;5050401;28;20225;-66
2021/01/16 07:46:28;;;;;;;18.05;9.75;;;;;;;;;;5050131;28;20204;-63
2021/01/16 07:48:56;;;;;;;21.38;10.35;;;;;;;;;;5050220;28;20200;-64
2021/01/16 07:51:25;;;;;;;18.58;10.25;;;;;;;;;;5049822;28;20203;-63
2021/01/16 07:53:54;;;;;;;17.70;9.82;;;;;;;;;;5050388;28;20362;-66
2021/01/16 07:56:22;;;;;;;20.52;10.57;;;;;;;;;;5048717;28;20193;-65
2021/01/16 07:59:12;;;;;;;23.60;10.80;;;;;;;;;;5048911;28;20191;-65
2021/01/16 08:01:46;;;;;;;25.83;11.82;;;;;;;;;;5040244;28;20243;-65
2021/01/16 08:04:21;;;;;;;16.70;9.85;;;;;;;;;;5036960;28;20628;-65
2021/01/16 08:06:47;;;;;;;18.13;10.02;;;;;;;;;;5038218;28;20266;-65
2021/01/16 08:09:18;;;;;;;19.55;10.85;;;;;;;;;;5038939;28;20205;-66
2021/01/16 08:11:48;;;;;;;20.65;11.30;;;;;;;;;;5038666;28;20730;-66
2021/01/16 08:14:18;;;;;;;18.27;9.00;;;;;;;;;;5048151;28;20204;-65
2021/01/16 08:16:46;;;;;;;211.32;118.03;;;;;;;;;;5048677;28;20231;-68
2021/01/16 08:19:17;;;;;;;154.48;74.25;;;;;;;;;;5047886;28;20900;-66
2021/01/16 08:21:51;;;;;;;20.48;10.18;;;;;;;;;;5048224;28;20629;-64
2021/01/16 08:24:18;;;;;;;19.15;10.60;;;;;;;;;;5036552;28;20739;-63
2021/01/16 08:26:58;;;;;;;20.10;9.88;;;;;;;;;;5048152;28;20799;-62
2021/01/16 08:29:25;;;;;;;18.15;9.45;;;;;;;;;;5046297;28;20199;-67
2021/01/16 08:32:02;;;;;;;13.05;6.35;;;;;;;;;;5050016;28;20188;-65
2021/01/16 08:34:48;;;;;;;16.20;7.32;;;;;;;;;;5051102;28;21017;-64
2021/01/16 08:37:28;;;;;;;16.27;7.85;;;;;;;;;;5048025;28;20215;-66
2021/01/16 08:39:54;;;;;;;19.35;9.80;;;;;;;;;;5045216;28;20211;-65
2021/01/16 08:42:25;;;;;;;19.92;10.18;;;;;;;;;;5052075;28;20192;-65
2021/01/16 08:44:52;;;;;;;18.92;8.80;;;;;;;;;;5048794;28;20197;-63
2021/01/16 08:47:18;;;;;;;16.17;8.07;;;;;;;;;;5053925;28;20177;-63
2021/01/16 08:49:45;;;;;;;13.05;6.72;;;;;;;;;;5051460;28;20288;-62
2021/01/16 08:52:11;;;;;;;80.25;44.65;;;;;;;;;;5044754;28;20184;-66
2021/01/16 08:54:38;;;;;;;25.42;14.55;;;;;;;;;;5052201;28;20287;-65
2021/01/16 08:57:04;;;;;;;16.05;7.82;;;;;;;;;;5051246;28;20185;-65
2021/01/16 08:59:31;;;;;;;13.60;6.78;;;;;;;;;;5052059;28;20195;-63
2021/01/16 09:02:05;;;;;;;13.82;6.78;;;;;;;;;;5051925;28;20575;-64
2021/01/16 09:04:33;;;;;;;12.02;7.25;;;;;;;;;;5050865;28;20222;-65
2021/01/16 09:07:10;;;;;;;72.47;36.88;;;;;;;;;;5051283;28;20196;-65
2021/01/16 09:09:37;;;;;;;62.17;34.15;;;;;;;;;;5048493;28;20298;-66
2021/01/16 09:12:04;;;;;;;21.80;10.65;;;;;;;;;;5051511;28;20196;-65
2021/01/16 09:14:30;;;;;;;24.92;11.15;;;;;;;;;;5040143;28;20224;-62
2021/01/16 09:16:57;;;;;;;15.48;8.10;;;;;;;;;;5048512;28;20201;-64
2021/01/16 09:19:29;;;;;;;15.15;7.43;;;;;;;;;;5049203;28;20250;-66
2021/01/16 09:22:14;;;;;;;18.25;8.30;;;;;;;;;;5051438;28;20561;-64
2021/01/16 09:24:40;;;;;;;15.73;8.27;;;;;;;;;;5048725;28;20247;-63
2021/01/16 09:27:22;;;;;;;15.45;7.60;;;;;;;;;;5051138;28;20181;-64
2021/01/16 09:29:49;;;;;;;15.32;7.75;;;;;;;;;;5049752;28;20197;-63
2021/01/16 09:32:28;;;;;;;16.48;7.90;;;;;;;;;;5051046;28;20188;-64
2021/01/16 09:34:57;;;;;;;12.73;5.47;;;;;;;;;;5045456;28;20664;-63
2021/01/16 09:37:24;;;;;;;12.85;7.03;;;;;;;;;;5050941;28;20196;-66
2021/01/16 09:40:05;;;;;;;18.77;7.47;;;;;;;;;;5050687;28;20227;-64
2021/01/16 09:42:40;;;;;;;11.95;7.32;;;;;;;;;;5049802;28;20257;-64
2021/01/16 09:45:07;;;;;;;14.38;7.25;;;;;;;;;;5050517;28;20279;-68
2021/01/16 09:47:33;;;;;;;16.70;7.78;;;;;;;;;;5050419;28;20196;-64
2021/01/16 09:50:00;;;;;;;14.55;6.65;;;;;;;;;;5050654;28;20260;-64
2021/01/16 09:52:27;;;;;;;12.15;6.75;;;;;;;;;;5051386;28;20681;-66
2021/01/16 09:54:53;;;;;;;13.85;5.72;;;;;;;;;;5050134;28;20201;-65
2021/01/16 09:57:35;;;;;;;14.73;7.05;;;;;;;;;;5042317;28;20192;-65
2021/01/16 10:00:14;;;;;;;36.42;21.33;;;;;;;;;;5048344;28;20683;-65
2021/01/16 10:02:41;;;;;;;28.80;12.98;;;;;;;;;;5031947;28;20611;-66
2021/01/16 10:05:09;;;;;;;23.08;11.10;;;;;;;;;;5031344;28;20200;-67
2021/01/16 10:07:38;;;;;;;11.65;6.70;;;;;;;;;;5031964;28;20209;-65
2021/01/16 10:10:11;;;;;;;12.15;6.38;;;;;;;;;;5031396;28;20630;-66
2021/01/16 10:12:38;;;;;;;11.65;6.05;;;;;;;;;;5031975;28;20185;-62
2021/01/16 10:15:06;;;;;;;14.10;6.05;;;;;;;;;;5032992;28;20206;-63
2021/01/16 10:17:33;;;;;;;10.98;5.85;;;;;;;;;;5031737;28;20577;-66
2021/01/16 10:20:09;;;;;;;10.73;5.80;;;;;;;;;;5033642;28;20196;-65
2021/01/16 10:22:36;;;;;;;8.70;4.43;;;;;;;;;;5031376;28;20197;-65
2021/01/16 10:25:08;;;;;;;10.65;4.90;;;;;;;;;;5042626;28;20211;-64
2021/01/16 10:27:45;;;;;;;9.57;5.63;;;;;;;;;;5051223;28;20625;-66
2021/01/16 10:30:15;;;;;;;10.82;4.60;;;;;;;;;;5050818;28;20196;-67
2021/01/16 10:32:41;;;;;;;9.48;5.15;;;;;;;;;;5051393;28;20220;-65
2021/01/16 10:35:08;;;;;;;12.02;6.00;;;;;;;;;;5045984;28;20315;-65
2021/01/16 10:37:41;;;;;;;10.63;5.47;;;;;;;;;;5031657;28;20193;-66
2021/01/16 10:40:08;;;;;;;12.38;4.43;;;;;;;;;;5031238;28;20204;-67
2021/01/16 10:42:45;;;;;;;9.00;5.28;;;;;;;;;;5031742;28;20584;-66
2021/01/16 10:45:13;;;;;;;8.55;4.30;;;;;;;;;;5032792;28;20598;-67
2021/01/16 10:47:42;;;;;;;9.35;5.28;;;;;;;;;;5031774;28;20557;-66
2021/01/16 10:50:08;;;;;;;8.77;4.75;;;;;;;;;;5034965;28;20201;-64
2021/01/16 10:52:35;;;;;;;11.95;5.90;;;;;;;;;;5033845;28;20197;-65
2021/01/16 10:55:05;;;;;;;7.68;4.60;;;;;;;;;;5033612;28;20272;-64
2021/01/16 10:58:00;;;;;;;6.28;3.95;;;;;;;;;;5049313;28;20204;-65
2021/01/16 11:00:41;;;;;;;8.95;4.35;;;;;;;;;;5050740;28;20438;-65
2021/01/16 11:03:16;;;;;;;11.25;4.95;;;;;;;;;;5050902;28;20225;-65
2021/01/16 11:05:47;;;;;;;9.65;4.88;;;;;;;;;;5034140;28;20640;-63
2021/01/16 11:08:18;;;;;;;6.55;3.70;;;;;;;;;;5031271;28;20209;-66
2021/01/16 11:10:46;;;;;;;7.65;4.05;;;;;;;;;;5030227;28;20201;-63
2021/01/16 11:13:16;;;;;;;12.07;4.18;;;;;;;;;;5030733;28;20207;-65
2021/01/16 11:15:43;;;;;;;8.10;4.30;;;;;;;;;;5029766;28;20189;-63
2021/01/16 11:18:24;;;;;;;10.95;4.50;;;;;;;;;;5030604;28;20208;-66
2021/01/16 11:20:56;;;;;;;10.77;3.90;;;;;;;;;;5030282;28;20227;-70
2021/01/16 11:23:29;;;;;;;9.13;4.20;;;;;;;;;;5030548;28;20773;-68
2021/01/16 11:25:57;;;;;;;26.27;14.30;;;;;;;;;;5047812;28;20753;-65
2021/01/16 11:28:24;;;;;;;12.50;7.43;;;;;;;;;;5050602;28;20197;-64
2021/01/16 11:31:08;;;;;;;7.25;3.47;;;;;;;;;;5049918;28;20259;-66
2021/01/16 11:33:34;;;;;;;5.22;3.13;;;;;;;;;;5050084;28;20284;-66
2021/01/16 11:36:02;;;;;;;8.90;3.53;;;;;;;;;;5050416;28;20327;-65
2021/01/16 11:38:39;;;;;;;6.93;3.22;;;;;;;;;;5054045;28;20667;-65
2021/01/16 11:41:05;;;;;;;6.13;3.30;;;;;;;;;;5049671;28;20208;-64
2021/01/16 11:43:32;;;;;;;8.27;3.58;;;;;;;;;;5037028;28;20223;-66
2021/01/16 11:46:05;;;;;;;6.63;3.42;;;;;;;;;;5028097;28;20576;-64
2021/01/16 11:48:32;;;;;;;8.80;3.97;;;;;;;;;;5030093;28;20193;-63
2021/01/16 11:51:12;;;;;;;13.27;5.35;;;;;;;;;;5029700;28;20759;-65
2021/01/16 11:53:43;;;;;;;18.42;7.60;;;;;;;;;;5029773;28;20197;-65
2021/01/16 11:56:10;;;;;;;8.10;3.95;;;;;;;;;;5029512;28;20197;-64
2021/01/16 11:58:37;;;;;;;30.80;15.68;;;;;;;;;;5029655;28;20585;-70
2021/01/16 12:01:03;;;;;;;31.63;17.00;;;;;;;;;;5029134;28;20201;-63
2021/01/16 12:03:30;;;;;;;12.32;6.20;;;;;;;;;;5029666;28;20695;-61
2021/01/16 12:05:56;;;;;;;9.07;4.85;;;;;;;;;;5029424;28;20207;-62
2021/01/16 12:08:23;;;;;;;12.82;6.90;;;;;;;;;;5029720;28;20307;-64
2021/01/16 12:10:50;;;;;;;8.75;4.38;;;;;;;;;;5029189;28;20742;-66
2021/01/16 12:13:16;;;;;;;9.63;4.63;;;;;;;;;;5029164;28;20193;-65
2021/01/16 12:15:42;;;;;;;9.23;4.60;;;;;;;;;;5029396;28;20247;-67
2021/01/16 12:18:10;;;;;;;7.95;3.88;;;;;;;;;;5029325;28;20577;-65
2021/01/16 12:20:36;;;;;;;7.25;3.88;;;;;;;;;;5029385;28;20573;-68
2021/01/16 12:23:02;;;;;;;10.70;4.13;;;;;;;;;;5031705;28;20217;-67
2021/01/16 12:25:30;;;;;;;7.82;4.07;;;;;;;;;;5029299;28;20197;-65
2021/01/16 12:27:56;;;;;;;7.68;4.10;;;;;;;;;;5047601;28;20204;-68
2021/01/16 12:30:23;;;;;;;7.50;4.10;;;;;;;;;;5048892;28;20188;-67
2021/01/16 12:32:50;;;;;;;10.60;5.80;;;;;;;;;;5049637;28;20208;-66
2021/01/16 12:35:23;;;;;;;8.35;4.07;;;;;;;;;;5046834;28;20228;-65
2021/01/16 12:37:50;;;;;;;6.45;3.88;;;;;;;;;;5031061;28;20205;-67
2021/01/16 12:40:18;;;;;;;7.55;4.10;;;;;;;;;;5045321;28;20246;-67
2021/01/16 12:42:45;;;;;;;10.68;4.40;;;;;;;;;;5049242;28;20224;-64
2021/01/16 12:45:13;;;;;;;9.00;3.55;;;;;;;;;;5048785;28;20199;-64
2021/01/16 12:47:40;;;;;;;8.43;4.28;;;;;;;;;;5049123;28;20199;-65
2021/01/16 12:50:07;;;;;;;9.57;4.50;;;;;;;;;;5048909;28;20180;-67
2021/01/16 12:52:33;;;;;;;7.63;4.25;;;;;;;;;;5049558;28;20639;-67
2021/01/16 12:54:59;;;;;;;8.32;4.78;;;;;;;;;;5048438;28;20191;-66
2021/01/16 12:57:30;;;;;;;10.15;5.10;;;;;;;;;;5048297;28;20256;-67
2021/01/16 12:59:57;;;;;;;7.40;3.70;;;;;;;;;;5047884;28;20783;-67
2021/01/16 13:02:25;;;;;;;10.82;4.75;;;;;;;;;;5049039;28;20801;-65
2021/01/16 13:04:53;;;;;;;15.13;5.90;;;;;;;;;;5048099;28;20285;-69
2021/01/16 13:07:21;;;;;;;14.50;5.22;;;;;;;;;;5048657;28;20684;-65
2021/01/16 13:09:48;;;;;;;11.23;5.50;;;;;;;;;;5036260;28;20304;-67
2021/01/16 13:12:14;;;;;;;10.90;4.75;;;;;;;;;;5029996;28;20192;-68
2021/01/16 13:14:48;;;;;;;11.55;5.07;;;;;;;;;;5028503;28;20209;-65
2021/01/16 13:17:18;;;;;;;9.90;5.28;;;;;;;;;;5028888;28;20201;-67
2021/01/16 13:19:46;;;;;;;11.02;4.75;;;;;;;;;;5028482;28;20270;-68
2021/01/16 13:22:17;;;;;;;87.05;47.17;;;;;;;;;;5029399;28;20205;-67
2021/01/16 13:24:43;;;;;;;13.43;6.57;;;;;;;;;;5029257;28;20307;-67
2021/01/16 13:27:21;;;;;;;9.80;4.85;;;;;;;;;;5032889;28;20199;-68
2021/01/16 13:29:56;;;;;;;12.82;5.47;;;;;;;;;;5031959;28;20203;-66
2021/01/16 13:32:22;;;;;;;8.57;4.80;;;;;;;;;;5033011;28;20595;-65
2021/01/16 13:34:52;;;;;;;11.60;5.57;;;;;;;;;;5044624;28;20192;-64
2021/01/16 13:37:21;;;;;;;9.75;5.10;;;;;;;;;;5052190;28;20210;-65
2021/01/16 13:39:49;;;;;;;11.40;6.07;;;;;;;;;;5051550;28;20597;-68
2021/01/16 13:42:28;;;;;;;85.70;46.95;;;;;;;;;;5052237;28;20189;-68
2021/01/16 13:45:00;;;;;;;10.43;5.30;;;;;;;;;;5039737;28;20327;-66
2021/01/16 13:47:28;;;;;;;9.18;5.10;;;;;;;;;;5031404;28;20199;-70
2021/01/16 13:50:14;;;;;;;10.57;5.45;;;;;;;;;;5031514;28;20193;-65
2021/01/16 13:52:40;;;;;;;8.27;4.80;;;;;;;;;;5032410;28;20197;-65
2021/01/16 13:55:20;;;;;;;9.18;4.32;;;;;;;;;;5031311;28;20185;-62
2021/01/16 13:58:00;;;;;;;10.15;5.43;;;;;;;;;;5031842;28;20197;-66
2021/01/16 14:00:30;;;;;;;12.18;5.35;;;;;;;;;;5031808;28;20254;-64
2021/01/16 14:02:56;;;;;;;9.38;5.00;;;;;;;;;;5039670;28;20197;-63
2021/01/16 14:05:27;;;;;;;10.60;5.43;;;;;;;;;;5051836;28;20200;-65
2021/01/16 14:07:55;;;;;;;11.30;4.30;;;;;;;;;;5048778;28;20173;-63
2021/01/16 14:10:31;;;;;;;9.52;4.88;;;;;;;;;;5039705;28;20189;-66
2021/01/16 14:13:11;;;;;;;10.20;5.53;;;;;;;;;;5051869;28;20223;-65
2021/01/16 14:15:52;;;;;;;9.48;5.22;;;;;;;;;;5050829;28;20722;-65
2021/01/16 14:18:32;;;;;;;9.90;5.35;;;;;;;;;;5051704;28;20189;-66
2021/01/16 14:20:59;;;;;;;11.93;5.05;;;;;;;;;;5051098;28;20678;-64
2021/01/16 14:23:29;;;;;;;13.00;6.05;;;;;;;;;;5051036;28;20227;-66
2021/01/16 14:26:30;;;;;;;11.50;5.43;;;;;;;;;;5050755;28;20189;-65
2021/01/16 14:28:56;;;;;;;13.25;5.20;;;;;;;;;;5039025;28;20207;-64
2021/01/16 14:31:23;;;;;;;13.35;4.95;;;;;;;;;;5050512;28;20201;-65
2021/01/16 14:33:57;;;;;;;9.13;4.63;;;;;;;;;;5051136;28;20193;-65
2021/01/16 14:36:24;;;;;;;7.03;4.15;;;;;;;;;;5050077;28;20239;-65
2021/01/16 14:39:00;;;;;;;9.05;5.03;;;;;;;;;;5050909;28;20189;-63
2021/01/16 14:41:53;;;;;;;12.05;5.00;;;;;;;;;;5035858;28;20212;-68
2021/01/16 14:44:26;;;;;;;8.88;4.55;;;;;;;;;;5030834;28;20224;-63